Terminal Aerodrome Forecast
Issued by NWS Cleveland, OH

Home | Current Version | Previous Version | Graphics & Text | Print | Product List | Glossary Off
Versions: 1 2 3 4 5 6 7 8 9 10 11 12 13 14 15 16 17

000
FTUS41 KCLE 012000 AAB
TAFMFD
TAF AMD
KMFD 012053Z 0121/0218 20003KT P6SM VCTS SCT040CB BKN100
      TEMPO 0121/0123 1SM TSRA BR SCT015 OVC040CB
     FM012300 03004KT P6SM BKN050
     FM020300 18004KT P6SM VCSH SCT025 OVC050=

USA.gov is the U.S. government's official web portal to all federal, state and local government web resources and services.